Latest METARs, TAFs and NOTAMs for LTFJ


---------------------------------------------------------------------------
	(OBSERVATIONS)
LTFJ 300050Z 06002KT CAVOK 14/07 Q1011 NOSIG RMK RWY24 06001KT=
LTFJ 300020Z 00000KT CAVOK 14/08 Q1011 NOSIG RMK RWY24 00000KT=
LTFJ 292350Z 05007KT CAVOK 15/07 Q1011 NOSIG RMK RWY24 VRB01KT=
LTFJ 292320Z 05006KT CAVOK 15/07 Q1011 NOSIG RMK RWY24 05003KT
    020V080=
LTFJ 292250Z 05005KT CAVOK 17/07 Q1011 NOSIG RMK RWY24 06001KT=
LTFJ 292220Z 04004KT CAVOK 19/05 Q1011 NOSIG RMK RWY24 VRB02KT=
---------------------------------------------------------------------------
	(FC)
Sorry, FC For LTFJ Not Found
---------------------------------------------------------------------------
	(TERMINAL AREA FORECAST)
LTFJ 292240Z 3000/3024 VRB02KT CAVOK
    BECMG 3007/3010 03014KT SCT040 BKN100 PROB30
    TEMPO 3018/3022 -TSRA FEW020CB BKN030=
---------------------------------------------------------------------------
	(NOTAMS)


LTFJ A0093/17 1-INDIVIDUAL SCHEDULED FLIGHT PERMIT APPLICATIONS
    FOR ISTANBUL SABIHA GOKCEN AIRPORT SHALL NOT BE MADE. 2-IN
    WINTER SCHEDULE PERIOD 2016/2017, AIRLINES THAT OPERATE SCHEDULED
    FLIGHTS SHALL APPLY TO FLIGHT PERMITS NOT EXCEEDING THE TOTAL
    NUMBER OF FLIGHT PERMITS AND PERFORMED FLIGHTS IN WINTER
    SCHEDULE PERIOD 2015/2016. 3-DUE TO INSUFFICIENT CAPACITY
    AT ISTANBUL SABIHA GOKCEN AIRPORT,THE ADDITIONAL FLIGHT PERMITS
    EXCEPT THE RIGHTS ESTABLISHED UNDER BILATERAL AGREEMENTS
    SHALL NOT BE GRANTED FOR THE FOREIGN AIRLINES THAT OPERATE
    SCHEDULED FLIGHTS. 4-FOR THE SCHEDULED ISOLATED FLIGHTS EXCEPT
    THE ABOVE PROVISIONS,SLOT APPLICATION TO SLOT COORDINATION
    CENTER OF THE DIRECTORATE GENERAL OF STATES AIRPORTS ADMINISTRATIONS
    SHALL BE MADE AS PRIORITY. AFTER RECIEVING SLOT, THE APPLICATION
    SHALL BE EVALUATED BY DIRECTORATE GENERAL OF CIVIL AVIATION.
    5-FLIGHTS OTHER THAN SCHEDULED FLIGHTS(CHARTER,GENERAL AVIATION
    AND SIMILAR) SHALL BE OPERATED ON NON-BUSY HOURS OF AERODROME
    AND APPROPRIATE TO THEIR SLOT TIME. 6-AIRWAYS SHALL PREPARE
    2017 SUMMER SCHEDULE PERIOD PLANNINGS ACCORDING TO THEIR
    SLOTS AND SHALL SELL TICKETS AFTER CONFIRMATION. 06 JAN 12:20
    2017 UNTIL 01 NOV 12:20 2017 ESTIMATED. CREATED: 06 JAN 13:06
    2017

LTFJ A0457/17 THERE ARE SURFACE IRREGULARITIES ON RWY 06/24,
    DECREASING RIDE QUALITY. 25 JAN 09:00 2017 UNTIL 25 JUN 10:00
    2017. CREATED: 25 JAN 09:10 2017

LTFJ A0748/17 SPECIAL PARKING(OVERSIZE PARKING) SHALL BE MADE
    ON PARKING AREA 105. 14 FEB 12:53 2017 UNTIL 14 MAY 13:00
    2017. CREATED: 14 FEB 12:54 2017

LTFJ A0793/17 AERODROME CLOSED TO VFR TRAFFICS EXC STATE AIRCRAFT,
    AMBULANCE, HELICOPTER, SAR AND EMERGENCY FLIGHTS DUE TO WORKING
    OF RWY AND TWYS. 17 MAR 14:00 2017 UNTIL 18 OCT 14:00 2017.
    CREATED: 17 FEB 09:09 2017

LTFJ A1029/17 SECTION AD 2.20 ,ITEM 'U' 'AIRCRAFT GROUND MOVEMENTS',
    1,2 AND 3 PARTS CHANGED AS BELOW: 1. TWY C HAS 2.86 PERCENT
    LONGITUDIAL SLOPE ASCENDING IN THE DIRECTION OF TWY D TO
    APRON 1 AND 0.5 PERCENT TRANSVERSE SLOPE. AIRCRAFT TO USE
    TWY C SHALL HAVE MAXIMUM SPEED 5 KNOTS BECAUSE OF SLOPE ON
    TWY C AND ADVERSE SLOPE AT THE JOINT OF TWY C AND TWY D.
    2. AIRCRAFT SHALL STOP OR HOLD BEFORE ENTERING TWY C IF REQUIRED
    TO STOP OR WAIT. 3. IN CASE THERE EXITS AIRCRAFT MOVEMENT
    AROUND RWY 24 THR, TWY C SHALL NOT BE USED FOR TAXIING IN
    THE DIRECTION OF TWY D TO APRON 1. REF AIP AD 2 LTFJ-16 ITEM
    U. 02 MAR 14:00 2017 UNTIL PERM. CREATED: 02 MAR 14:38 2017

LTFJ A1131/17 RWY AND TWYS GRASS CUTTING. ADVICE ATC INST. 08
    MAR 11:00 2017 UNTIL 08 JUN 14:00 2017. CREATED: 08 MAR 11:06
    2017

LTFJ A1371/17 SPECIAL PARKING WILL BE DONE AT ACFT STAND NUMBERED
    104. 21 MAR 13:24 2017 UNTIL 14 MAY 13:00 2017. CREATED:
    21 MAR 13:25 2017

LTFJ A1384/17 THERE ARE CONSTRUCTION WORK 80 M. AWAY FROM HOLDING
    BAY AT NORTH DIRECTION , 220 M. AWAY FROM HOLDING BAY AT
    SOUTHWEST DIRECTION , 75 M. AWAY FROM HOLDING BAY ATNORTHEAST
    DIRECTION . ADVICE ATC INSTRUCTION. 22 MAR 08:00 2017 UNTIL
    22 JUN 09:00 2017. CREATED: 22 MAR 08:02 2017

LTFJ A1555/17 HOLDING BAY CLOSED TO TRAFFIC. 30 MAR 09:54 2017
    UNTIL 22 JUN 12:00 2017. CREATED: 30 MAR 10:22 2017

LTFJ A1791/17 SABIHA GOKCEN AERODROME, RWY 06/24 WILL BE CLOSED
    TO DEPARTURE AND ARRIVAL TRAFFIC TEMPORARILY FOR RWY MAINTENANCE
    AND REPAIRS AS FOLLOWS DAYS AND TIMES:DATES AND TIMES BETWEEN
    MAR OCT 29 2017- MAR 25 2018 (EXC BTN DEC 31 2017 2300 UTC
    AND JAN 02 2018 0330 UTC) MON:0000-0200 UTC, 2200-2359 UTC
    TUE:0000-0330 UTC, 2200-2359 UTC WED:0000-0330 UTC, 2200-2359
    UTC THU:0000-0330 UTC, 2200-2359 UTC FRI:0000-0330 UTC, 2300-2359
    UTC SAT:0000-0200 UTC, 2200-2359 UTC SUN:0000-0330 UTC, 2300-2359
    UTC NOTE:PILOTS OF DEPARTING AIRCRAFT SHALL REQUEST START
    UP AND PUSH-BACK CLEARANCE BEFORE 30 MINUTES FROM RWY CLOSURE
    TIME NOT REGARDING SLOT TIME. OTHERWISE THEY SHALL NOT BE
    ALLOWED TO START UP AND PUSH-BACH. 29 OCT 23:00 2017 UNTIL
    25 MAR 03:30 2018. CREATED: 11 APR 13:39 2017

LTFJ A1842/17 TRIGGER NOTAM-PERM AIRAC AIP AMDT 04/17 EFFECTIVE
    DATE 27 APR 2017 CHANGES OF OTHER LIGHTING,SECONDARY POWER
    SUPPLY,AIRCRAFT GROUND MOVEMENTS,AD2 LTFJ ADC. 27 APR 00:00
    2017 UNTIL 10 MAY 23:59 2017. CREATED: 13 APR 09:10 2017

LTFJ A1882/17 ACFT STANDS NUMBERED 305 CLOSED TO TFC. 14 APR
    15:45 2017 UNTIL 30 APR 11:00 2017. CREATED: 14 APR 15:43
    2017

LTFJ A1976/17 RWY 06 FLASH LIGHTS OUT OF SERVICE. 21 APR 09:49
    2017 UNTIL 21 MAY 13:00 2017. CREATED: 21 APR 09:53 2017

LTFJ A2024/17 ACFT STAND NUMBERED 405,406 AND 407 WILL BE USED
    AS SPECIAL PARKING FOR OVERSIZE AIRCRAFT. 24 APR 12:50 2017
    UNTIL 16 JUN 12:50 2017. CREATED: 24 APR 13:00 2017

LTFJ A2029/17 SABIHA GOKCEN AERODROME, PLEASE AMEND TO READ THE
    INFORMATION OF RWY 06/24 LANDING DISTANCES AVAILABLE(LDA)
    AS BELOW: RWY 06 LDA:2910M RWY 24 LDA:3000M REF AIP TURKIYE
    LTFJ AD 2.13. 24 APR 14:15 2017 UNTIL PERM. CREATED: 24 APR
    14:33 2017

LTFJ A2042/17 THR RWY 06 CEILING MEASUREMENT EQPT (CEILOMETER)
    VALUES NOT AVBL. 25 APR 07:57 2017 UNTIL 03 MAY 07:40 2017.
    CREATED: 25 APR 07:57 2017

LTFJ A2080/17 HOLDING BAY LIGHTING SYSTEM U/S. 28 APR 07:56 2017
    UNTIL 28 JUN 11:00 2017. CREATED: 28 APR 07:56 2017

LTFJ A2101/17 THERE ARE RUBBER DEPOSITS AT TOUCHDOWN ZONES OF
    RWY 06/24. 28 APR 13:56 2017 UNTIL 29 MAY 13:10 2017. CREATED:
    28 APR 13:57 2017

LTFJ A4231/16 SABIHA GOKCEN AERODROME, RWY 06/24 WILL BE CLOSED
    TO DEPARTURE AND ARRIVAL TRAFFIC TEMPORARILY FOR RWY MAINTENANCE
    AND REPAIRS AS FOLLOWS DAYS AND TIMES: DATES AND TIMES BETWEEN
    MAR 27-JUN 22 2017, JUL 03-AUG 24 2017 AND SEP 06-OCT 26
    2017: MON:2230-2359 UTC TUE:0000-0230 UTC, 2130-2359 UTC
    WED:0000-0330 UTC, 2130-2359 UTC THU:0000-0330 UTC NOTE:PILOTS
    OF DEPARTING AIRCRAFT SHALL REQUEST START UP AND PUSH-BACK
    CLEARANCE BEFORE 45 MINUTES FROM RWY CLOSURE TIME NOT REGARDING
    SLOT TIME. OTHERWISE THEY SHALL NOT BE ALLOWED TO START UP
    AND PUSH-BACH. 27 MAR 22:30 2017 UNTIL 26 OCT 03:30 2017.
    CREATED: 29 SEP 12:25 2016

LTFJ G4334/13 SABIHA GOKCEN HAVALIMANI'NDAKI RNAV (GNSS) SID
    VE STAR'LARIN UYGULANMA GEREKSINIMLERI ILE ILGILI HUSUSLAR
    ASAGIDAKI GIBIDIR: THESE PROCEDURES ARE MANDATORY FOR P-RNAV
    APPROVED AIRCRAFT. THEREFORE, THE P-RNAV APPROVED AIRCRAFT
    ARRIVING/DEPARTING TO/FROM LTFJ ARE REQUIRED TO FLIGHT PLAN
    OR SUBMIT A MODIFICATION MESSAGE (CHG) CONCERNING THE ROUTE
    SECTION OF THEIR RPLS AS DESCRIBED BELOW: 1-GNSS BASED RNAV
    STARS FOR LTFJ STARTS FROM THE WAYPOINTS/FIXES, DESIGNATED
    AS TETSA, PAZAR, OTSAN, ELVON, DEKEK, TURKO, GELBU AND ATVEP.
    THESE WAYPOINTS/FIXES SHALL BE THE LAST ELEMENT OF THE FLIGHT
    PLANNED ROUTES FOR THE P-RNAV APPROVED AIRCRAFT AS ILLUSTRATED
    BELOW: -A FLIGHT PLANNED ROUTE FOR THE ARRIVALS TO LTFJ VIA
    RIXEN, EXAMPLE:..... RIXEN UN616 TETSA 2- GNSS BASED RNAV
    SIDS FOR LTFJ ENDS AT THE WAYPOINTS/FIXES, DESIGNATED AS
    MARMA, GOLDO, VADEN, IBLAL, MAKOL,MOPIN, PIMAV AND EDASA.
    THESE WAYPOINTS/FIXES SHALL BE THE FIRST ELEMENT OF THE FLIGHT
    PLANNED ROUTES FOR THE P-RNAV APPROVED AIRCRAFT AS ILLUSTRATED
    BELOW: -A FLIGHT PLANNED ROUTE FOR THE DEPARTURES FROM LTFJ
    VIA MAKOL, EXAMPLE:MAKOL UN617. 17 OCT 00:00 2013 UNTIL PERM.
    CREATED: 07 JAN 07:12 2015

LTFJ G4445/14 ISTANBUL SABIHA GOKCEN HAVALIMANI: AIP SUP 06/13
    IPTAL EDILMISTIR. 18 SEP 14:52 2014 UNTIL PERM. CREATED:
    07 JAN 07:16 2015

---------------------------------------------------------------------------